createdAt,value
2023-04-15T00:00:17.050Z,87268.00
2023-04-15T00:01:17.024Z,87268.00
2023-04-15T00:02:17.084Z,87265.00
2023-04-15T00:03:17.156Z,87261.00
2023-04-15T00:04:17.181Z,87265.00
2023-04-15T00:05:16.895Z,87263.00
2023-04-15T00:06:16.860Z,87261.00
2023-04-15T00:07:16.830Z,87263.00
2023-04-15T00:08:16.802Z,87257.00
2023-04-15T00:09:16.839Z,87263.00
2023-04-15T00:10:16.812Z,87263.00
2023-04-15T00:11:16.761Z,87265.00
2023-04-15T00:12:16.736Z,87259.00
2023-04-15T00:13:16.700Z,87259.00
2023-04-15T00:14:16.669Z,87263.00
2023-04-15T00:15:16.643Z,87263.00
2023-04-15T00:16:16.638Z,87265.00
2023-04-15T00:17:16.602Z,87265.00
2023-04-15T00:18:16.541Z,87263.00
2023-04-15T00:19:16.542Z,87265.00
2023-04-15T00:20:16.576Z,87265.00
2023-04-15T00:21:16.620Z,87265.00
2023-04-15T00:22:16.642Z,87261.00
2023-04-15T00:23:16.689Z,87263.00
2023-04-15T00:24:16.702Z,87263.00
2023-04-15T00:25:16.759Z,87263.00
2023-04-15T00:26:16.766Z,87261.00
2023-04-15T00:27:16.795Z,87263.00
2023-04-15T00:28:16.854Z,87263.00
2023-04-15T00:29:16.891Z,87261.00
2023-04-15T00:30:16.919Z,87265.00
2023-04-15T00:31:17.157Z,87265.00
2023-04-15T00:32:16.997Z,87265.00
2023-04-15T00:33:17.039Z,87265.00
2023-04-15T00:34:17.046Z,87265.00
2023-04-15T00:35:17.104Z,87265.00
2023-04-15T00:36:17.124Z,87266.00
2023-04-15T00:37:17.152Z,87266.00
2023-04-15T00:38:17.210Z,87265.00
2023-04-15T00:39:17.239Z,87265.00
2023-04-15T00:40:17.280Z,87265.00
2023-04-15T00:41:17.296Z,87263.00
2023-04-15T00:42:17.346Z,87259.00
2023-04-15T00:43:17.400Z,87261.00
2023-04-15T00:44:17.404Z,87261.00
2023-04-15T00:45:17.436Z,87261.00
2023-04-15T00:46:17.566Z,87261.00
2023-04-15T00:47:17.472Z,87263.00
2023-04-15T00:48:17.583Z,87263.00
2023-04-15T00:49:17.611Z,87261.00
2023-04-15T00:50:17.578Z,87263.00
2023-04-15T00:51:17.625Z,87263.00
2023-04-15T00:52:17.649Z,87261.00
2023-04-15T00:53:17.690Z,87261.00
2023-04-15T00:54:17.736Z,87261.00
2023-04-15T00:55:17.694Z,87257.00
2023-04-15T00:56:17.659Z,87263.00
2023-04-15T00:57:17.628Z,87259.00
2023-04-15T00:58:17.593Z,87263.00
2023-04-15T00:59:17.556Z,87261.00
2023-04-15T01:00:17.550Z,87261.00
2023-04-15T01:01:17.498Z,87261.00
2023-04-15T01:02:17.556Z,87259.00
2023-04-15T01:03:17.558Z,87259.00
2023-04-15T01:04:17.568Z,87259.00
2023-04-15T01:05:17.492Z,87259.00
2023-04-15T01:06:17.520Z,87259.00
2023-04-15T01:07:17.558Z,87257.00
2023-04-15T01:08:17.596Z,87257.00
2023-04-15T01:09:17.644Z,87259.00
2023-04-15T01:10:17.673Z,87259.00
2023-04-15T01:11:17.717Z,87261.00
2023-04-15T01:12:17.779Z,87263.00
2023-04-15T01:13:17.763Z,87261.00
2023-04-15T01:14:17.741Z,87261.00
2023-04-15T01:15:17.708Z,87259.00
2023-04-15T01:16:17.698Z,87257.00
2023-04-15T01:17:17.640Z,87259.00
2023-04-15T01:18:17.597Z,87261.00
2023-04-15T01:19:17.581Z,87259.00
2023-04-15T01:20:17.521Z,87259.00
2023-04-15T01:21:17.484Z,87261.00
2023-04-15T01:22:17.459Z,87261.00
2023-04-15T01:23:17.468Z,87261.00
2023-04-15T01:24:17.499Z,87261.00
2023-04-15T01:25:17.567Z,87259.00
2023-04-15T01:26:17.568Z,87259.00
2023-04-15T01:27:17.611Z,87259.00
2023-04-15T01:28:17.651Z,87259.00
2023-04-15T01:29:17.722Z,87257.00
2023-04-15T01:30:17.729Z,87261.00
2023-04-15T01:31:17.793Z,87255.00
2023-04-15T01:32:17.781Z,87259.00
2023-04-15T01:33:17.832Z,87259.00
2023-04-15T01:34:17.922Z,87259.00
2023-04-15T01:35:17.888Z,87261.00
2023-04-15T01:36:17.942Z,87263.00
2023-04-15T01:37:17.981Z,87259.00
2023-04-15T01:38:18.017Z,87259.00
2023-04-15T01:39:18.056Z,87259.00
2023-04-15T01:40:18.083Z,87259.00
2023-04-15T01:41:18.102Z,87257.00
2023-04-15T01:42:18.150Z,87255.00
2023-04-15T01:43:18.192Z,87255.00
2023-04-15T01:44:18.231Z,87259.00
2023-04-15T01:45:18.247Z,87259.00
2023-04-15T01:46:18.287Z,87255.00
2023-04-15T01:47:18.313Z,87255.00
2023-04-15T01:48:18.331Z,87257.00
2023-04-15T01:49:18.427Z,87253.00
2023-04-15T01:50:18.487Z,87257.00
2023-04-15T01:51:18.444Z,87259.00
2023-04-15T01:52:18.493Z,87259.00
2023-04-15T01:53:18.529Z,87257.00
2023-04-15T01:54:18.555Z,87261.00
2023-04-15T01:55:18.600Z,87255.00
2023-04-15T01:56:18.631Z,87257.00
2023-04-15T01:57:18.677Z,87257.00
2023-04-15T01:58:18.703Z,87259.00
2023-04-15T01:59:18.750Z,87257.00
2023-04-15T02:00:18.782Z,87257.00
2023-04-15T02:01:18.903Z,87257.00
2023-04-15T02:02:18.960Z,87255.00
2023-04-15T02:03:18.930Z,87255.00
2023-04-15T02:04:18.943Z,87255.00
2023-04-15T02:05:18.954Z,87253.00
2023-04-15T02:06:18.990Z,87251.00
2023-04-15T02:07:18.993Z,87249.00
2023-04-15T02:08:19.035Z,87253.00
2023-04-15T02:09:19.088Z,87253.00
2023-04-15T02:10:19.103Z,87249.00
2023-04-15T02:11:19.136Z,87249.00
2023-04-15T02:12:19.233Z,87249.00
2023-04-15T02:13:19.204Z,87249.00
2023-04-15T02:14:19.274Z,87249.00
2023-04-15T02:15:19.298Z,87253.00
2023-04-15T02:16:19.532Z,87249.00
2023-04-15T02:17:19.416Z,87255.00
2023-04-15T02:18:19.322Z,87251.00
2023-04-15T02:19:19.304Z,87251.00
2023-04-15T02:20:19.266Z,87255.00
2023-04-15T02:21:19.219Z,87255.00
2023-04-15T02:22:19.191Z,87253.00
2023-04-15T02:23:19.167Z,87255.00
2023-04-15T02:24:19.112Z,87255.00
2023-04-15T02:25:19.089Z,87255.00
2023-04-15T02:26:19.063Z,87259.00
2023-04-15T02:27:19.076Z,87253.00
2023-04-15T02:28:19.159Z,87253.00
2023-04-15T02:29:19.122Z,87253.00
2023-04-15T02:30:19.157Z,87251.00
2023-04-15T02:31:19.216Z,87253.00
2023-04-15T02:32:19.312Z,87251.00
2023-04-15T02:33:19.240Z,87251.00
2023-04-15T02:34:19.300Z,87245.00
2023-04-15T02:35:19.315Z,87245.00
2023-04-15T02:36:19.551Z,87249.00
2023-04-15T02:37:19.407Z,87247.00
2023-04-15T02:38:19.456Z,87247.00
2023-04-15T02:39:19.494Z,87247.00
2023-04-15T02:40:19.517Z,87253.00
2023-04-15T02:41:19.528Z,87251.00
2023-04-15T02:42:19.584Z,87253.00
2023-04-15T02:43:19.617Z,87255.00
2023-04-15T02:44:19.727Z,87255.00
2023-04-15T02:45:19.708Z,87255.00
2023-04-15T02:46:19.745Z,87257.00
2023-04-15T02:47:19.816Z,87255.00
2023-04-15T02:48:19.744Z,87253.00
2023-04-15T02:49:19.718Z,87253.00
2023-04-15T02:50:19.712Z,87253.00
2023-04-15T02:51:19.777Z,87251.00
2023-04-15T02:52:19.673Z,87251.00
2023-04-15T02:53:19.607Z,87249.00
2023-04-15T02:54:19.598Z,87251.00
2023-04-15T02:55:19.580Z,87247.00
2023-04-15T02:56:19.630Z,87251.00
2023-04-15T02:57:19.523Z,87251.00
2023-04-15T02:58:19.496Z,87255.00
2023-04-15T02:59:19.488Z,87253.00
2023-04-15T03:00:19.456Z,87251.00
2023-04-15T03:01:19.448Z,87253.00
2023-04-15T03:02:19.477Z,87251.00
2023-04-15T03:03:19.512Z,87251.00
2023-04-15T03:04:19.487Z,87249.00
2023-04-15T03:05:19.377Z,87249.00
2023-04-15T03:06:19.336Z,87247.00
2023-04-15T03:07:19.280Z,87247.00
2023-04-15T03:08:19.261Z,87245.00
2023-04-15T03:09:19.231Z,87245.00
2023-04-15T03:10:19.253Z,87241.00
2023-04-15T03:11:19.188Z,87241.00
2023-04-15T03:12:19.182Z,87241.00
2023-04-15T03:13:19.153Z,87241.00
2023-04-15T03:14:19.115Z,87241.00
2023-04-15T03:15:19.110Z,87241.00
2023-04-15T03:16:19.167Z,87243.00
2023-04-15T03:17:19.080Z,87243.00
2023-04-15T03:18:19.102Z,87243.00
2023-04-15T03:19:18.991Z,87241.00
2023-04-15T03:20:19.012Z,87239.00
2023-04-15T03:21:18.953Z,87241.00
2023-04-15T03:22:18.946Z,87243.00
2023-04-15T03:23:18.930Z,87243.00
2023-04-15T03:24:18.912Z,87241.00
2023-04-15T03:25:18.879Z,87241.00
2023-04-15T03:26:18.870Z,87243.00
2023-04-15T03:27:18.830Z,87243.00
2023-04-15T03:28:18.825Z,87241.00
2023-04-15T03:29:18.796Z,87241.00
2023-04-15T03:30:18.783Z,87241.00
2023-04-15T03:31:18.795Z,87239.00
2023-04-15T03:32:18.752Z,87241.00
2023-04-15T03:33:18.713Z,87241.00
2023-04-15T03:34:18.814Z,87243.00
2023-04-15T03:35:18.695Z,87243.00
2023-04-15T03:36:18.645Z,87243.00
2023-04-15T03:37:18.609Z,87243.00
2023-04-15T03:38:18.580Z,87241.00
2023-04-15T03:39:18.551Z,87241.00
2023-04-15T03:40:18.557Z,87243.00
2023-04-15T03:41:18.509Z,87243.00
2023-04-15T03:42:18.519Z,87249.00
2023-04-15T03:43:18.464Z,87247.00
2023-04-15T03:44:18.450Z,87247.00
2023-04-15T03:45:18.420Z,87247.00
2023-04-15T03:46:18.523Z,87245.00
2023-04-15T03:47:18.390Z,87245.00
2023-04-15T03:48:18.559Z,87243.00
2023-04-15T03:49:18.371Z,87243.00
2023-04-15T03:50:18.322Z,87245.00
2023-04-15T03:51:18.350Z,87247.00
2023-04-15T03:52:18.359Z,87247.00
2023-04-15T03:53:18.394Z,87245.00
2023-04-15T03:54:18.418Z,87245.00
2023-04-15T03:55:18.477Z,87245.00
2023-04-15T03:56:18.401Z,87245.00
2023-04-15T03:57:18.393Z,87245.00
2023-04-15T03:58:18.365Z,87247.00
2023-04-15T03:59:18.329Z,87245.00
2023-04-15T04:00:18.340Z,87245.00
2023-04-15T04:01:18.340Z,87253.00
2023-04-15T04:02:18.347Z,87249.00
2023-04-15T04:03:18.387Z,87249.00
2023-04-15T04:04:18.289Z,87253.00
2023-04-15T04:05:18.221Z,87251.00
2023-04-15T04:06:18.201Z,87251.00
2023-04-15T04:07:18.222Z,87253.00
2023-04-15T04:08:18.171Z,87251.00
2023-04-15T04:09:18.141Z,87249.00
2023-04-15T04:10:18.178Z,87247.00
2023-04-15T04:11:18.214Z,87249.00
2023-04-15T04:12:18.212Z,87251.00
2023-04-15T04:13:18.260Z,87251.00
2023-04-15T04:14:18.324Z,87249.00
2023-04-15T04:15:18.385Z,87249.00
2023-04-15T04:16:18.477Z,87247.00
2023-04-15T04:17:18.369Z,87251.00
2023-04-15T04:18:18.324Z,87251.00
2023-04-15T04:19:18.352Z,87251.00
2023-04-15T04:20:18.329Z,87251.00
2023-04-15T04:21:18.280Z,87251.00
2023-04-15T04:22:18.263Z,87251.00
2023-04-15T04:23:18.227Z,87251.00
2023-04-15T04:24:18.237Z,87249.00
2023-04-15T04:25:18.222Z,87251.00
2023-04-15T04:26:18.214Z,87247.00
2023-04-15T04:27:18.200Z,87249.00
2023-04-15T04:28:18.191Z,87247.00
2023-04-15T04:29:18.222Z,87247.00
2023-04-15T04:30:18.251Z,87249.00
2023-04-15T04:31:18.208Z,87253.00
2023-04-15T04:32:18.190Z,87251.00
2023-04-15T04:33:18.178Z,87253.00
2023-04-15T04:34:18.180Z,87253.00
2023-04-15T04:35:18.200Z,87257.00
2023-04-15T04:36:18.226Z,87257.00
2023-04-15T04:37:18.205Z,87259.00
2023-04-15T04:38:18.211Z,87261.00
2023-04-15T04:39:18.195Z,87259.00
2023-04-15T04:40:18.195Z,87263.00
2023-04-15T04:41:18.192Z,87263.00
2023-04-15T04:42:18.189Z,87263.00
2023-04-15T04:43:18.192Z,87265.00
2023-04-15T04:44:18.244Z,87265.00
2023-04-15T04:45:18.225Z,87266.00
2023-04-15T04:46:18.340Z,87266.00
2023-04-15T04:47:18.232Z,87266.00
2023-04-15T04:48:18.251Z,87266.00
2023-04-15T04:49:18.244Z,87268.00
2023-04-15T04:50:18.269Z,87270.00
2023-04-15T04:51:18.285Z,87272.00
2023-04-15T04:52:18.288Z,87274.00
2023-04-15T04:53:18.325Z,87276.00
2023-04-15T04:54:18.304Z,87276.00
2023-04-15T04:55:18.306Z,87272.00
2023-04-15T04:56:18.344Z,87274.00
2023-04-15T04:57:18.316Z,87274.00
2023-04-15T04:58:18.325Z,87276.00
2023-04-15T04:59:19.403Z,87276.00
2023-04-15T05:00:18.325Z,87278.00
2023-04-15T05:01:18.383Z,87278.00
2023-04-15T05:02:18.411Z,87278.00
2023-04-15T05:03:18.441Z,87278.00
2023-04-15T05:04:18.412Z,87280.00
2023-04-15T05:05:18.363Z,87280.00
2023-04-15T05:06:18.390Z,87280.00
2023-04-15T05:07:18.366Z,87280.00
2023-04-15T05:08:18.385Z,87278.00
2023-04-15T05:09:18.371Z,87280.00
2023-04-15T05:10:18.442Z,87280.00
2023-04-15T05:11:18.408Z,87278.00
2023-04-15T05:12:18.414Z,87276.00
2023-04-15T05:13:18.403Z,87278.00
2023-04-15T05:14:18.415Z,87280.00
2023-04-15T05:15:18.416Z,87278.00
2023-04-15T05:16:18.480Z,87278.00
2023-04-15T05:17:18.417Z,87278.00
2023-04-15T05:18:18.426Z,87280.00
2023-04-15T05:19:18.416Z,87280.00
2023-04-15T05:20:18.407Z,87280.00
2023-04-15T05:21:18.382Z,87280.00
2023-04-15T05:22:18.364Z,87278.00
2023-04-15T05:23:18.348Z,87278.00
2023-04-15T05:24:18.334Z,87278.00
2023-04-15T05:25:18.326Z,87276.00
2023-04-15T05:26:18.335Z,87278.00
2023-04-15T05:27:18.304Z,87280.00
2023-04-15T05:28:18.278Z,87278.00
2023-04-15T05:29:18.244Z,87276.00
2023-04-15T05:30:18.428Z,87276.00
2023-04-15T05:31:18.322Z,87278.00
2023-04-15T05:32:18.263Z,87278.00
2023-04-15T05:33:18.210Z,87276.00
2023-04-15T05:34:18.245Z,87280.00
2023-04-15T05:35:18.163Z,87282.00
2023-04-15T05:36:18.178Z,87282.00
2023-04-15T05:37:18.145Z,87284.00
2023-04-15T05:38:18.147Z,87284.00
2023-04-15T05:39:18.126Z,87284.00
2023-04-15T05:40:18.120Z,87284.00
2023-04-15T05:41:19.864Z,87286.00
2023-04-15T05:42:18.151Z,87284.00
2023-04-15T05:43:18.173Z,87288.00
2023-04-15T05:44:18.279Z,87290.00
2023-04-15T05:45:18.324Z,87290.00
2023-04-15T05:46:18.253Z,87288.00
2023-04-15T05:47:18.301Z,87290.00
2023-04-15T05:48:18.303Z,87294.00
2023-04-15T05:49:18.308Z,87288.00
2023-04-15T05:50:18.331Z,87292.00
2023-04-15T05:51:18.395Z,87288.00
2023-04-15T05:52:18.370Z,87288.00
2023-04-15T05:53:18.383Z,87288.00
2023-04-15T05:54:20.032Z,87290.00
2023-04-15T05:55:18.436Z,87288.00
2023-04-15T05:56:18.453Z,87290.00
2023-04-15T05:57:18.470Z,87288.00
2023-04-15T05:58:18.560Z,87288.00
2023-04-15T05:59:18.504Z,87290.00
2023-04-15T06:00:18.527Z,87290.00
2023-04-15T06:01:18.564Z,87292.00
2023-04-15T06:02:18.688Z,87290.00
2023-04-15T06:03:18.710Z,87290.00
2023-04-15T06:04:18.711Z,87290.00
2023-04-15T06:05:18.737Z,87294.00
2023-04-15T06:06:18.685Z,87292.00
2023-04-15T06:07:18.769Z,87294.00
2023-04-15T06:08:18.758Z,87296.00
2023-04-15T06:09:18.766Z,87294.00
2023-04-15T06:10:18.784Z,87294.00
2023-04-15T06:11:18.887Z,87294.00
2023-04-15T06:12:18.827Z,87292.00
2023-04-15T06:13:18.918Z,87294.00
2023-04-15T06:14:18.886Z,87296.00
2023-04-15T06:15:18.897Z,87294.00
2023-04-15T06:16:18.946Z,87296.00
2023-04-15T06:17:18.980Z,87296.00
2023-04-15T06:18:18.925Z,87294.00
2023-04-15T06:19:18.916Z,87294.00
2023-04-15T06:20:18.930Z,87294.00
2023-04-15T06:21:18.911Z,87296.00
2023-04-15T06:22:18.880Z,87294.00
2023-04-15T06:23:18.923Z,87294.00
2023-04-15T06:24:18.878Z,87292.00
2023-04-15T06:25:18.855Z,87292.00
2023-04-15T06:26:18.858Z,87292.00
2023-04-15T06:27:18.830Z,87292.00
2023-04-15T06:28:18.815Z,87294.00
2023-04-15T06:29:18.809Z,87294.00
2023-04-15T06:30:18.810Z,87294.00
2023-04-15T06:31:18.809Z,87292.00
2023-04-15T06:32:18.784Z,87292.00
2023-04-15T06:33:18.780Z,87294.00
2023-04-15T06:34:18.753Z,87294.00
2023-04-15T06:35:18.756Z,87294.00
2023-04-15T06:36:18.769Z,87296.00
2023-04-15T06:37:18.797Z,87296.00
2023-04-15T06:38:18.797Z,87296.00
2023-04-15T06:39:18.785Z,87296.00
2023-04-15T06:40:18.830Z,87294.00
2023-04-15T06:41:18.756Z,87298.00
2023-04-15T06:42:18.833Z,87298.00
2023-04-15T06:43:18.730Z,87298.00
2023-04-15T06:44:18.715Z,87296.00
2023-04-15T06:45:18.702Z,87294.00
2023-04-15T06:46:18.845Z,87294.00
2023-04-15T06:47:18.697Z,87296.00
2023-04-15T06:48:18.669Z,87294.00
2023-04-15T06:49:18.666Z,87292.00
2023-04-15T06:50:18.644Z,87288.00
2023-04-15T06:51:18.645Z,87290.00
2023-04-15T06:52:19.038Z,87294.00
2023-04-15T06:53:18.626Z,87292.00
2023-04-15T06:54:18.615Z,87292.00
2023-04-15T06:55:18.614Z,87292.00
2023-04-15T06:56:18.579Z,87292.00
2023-04-15T06:57:18.613Z,87294.00
2023-04-15T06:58:18.628Z,87296.00
2023-04-15T06:59:18.628Z,87296.00
2023-04-15T07:00:18.601Z,87298.00
2023-04-15T07:01:18.632Z,87300.00
2023-04-15T07:02:19.138Z,87300.00
2023-04-15T07:03:18.645Z,87300.00
2023-04-15T07:04:18.649Z,87298.00
2023-04-15T07:05:18.587Z,87296.00
2023-04-15T07:06:18.584Z,87296.00
2023-04-15T07:07:19.053Z,87296.00
2023-04-15T07:08:18.545Z,87296.00
2023-04-15T07:09:18.526Z,87300.00
2023-04-15T07:10:18.526Z,87298.00
2023-04-15T07:11:18.536Z,87300.00
2023-04-15T07:12:18.533Z,87294.00
2023-04-15T07:13:18.533Z,87292.00
2023-04-15T07:14:18.545Z,87294.00
2023-04-15T07:15:18.482Z,87294.00
2023-04-15T07:16:18.536Z,87294.00
2023-04-15T07:17:18.561Z,87298.00
2023-04-15T07:18:18.485Z,87296.00
2023-04-15T07:19:18.443Z,87296.00
2023-04-15T07:20:18.446Z,87296.00
2023-04-15T07:21:18.433Z,87292.00
2023-04-15T07:22:18.528Z,87292.00
2023-04-15T07:23:18.385Z,87292.00
2023-04-15T07:24:18.385Z,87292.00
2023-04-15T07:25:18.373Z,87292.00
2023-04-15T07:26:18.360Z,87292.00
2023-04-15T07:27:18.383Z,87294.00
2023-04-15T07:28:18.320Z,87288.00
2023-04-15T07:29:18.317Z,87290.00
2023-04-15T07:30:18.286Z,87290.00
2023-04-15T07:31:18.494Z,87292.00
2023-04-15T07:32:18.297Z,87294.00
2023-04-15T07:33:18.265Z,87294.00
2023-04-15T07:34:18.213Z,87296.00
2023-04-15T07:35:18.202Z,87292.00
2023-04-15T07:36:18.177Z,87296.00
2023-04-15T07:37:18.217Z,87296.00
2023-04-15T07:38:18.122Z,87294.00
2023-04-15T07:39:18.136Z,87296.00
2023-04-15T07:40:18.223Z,87294.00
2023-04-15T07:41:18.281Z,87292.00
2023-04-15T07:42:18.280Z,87290.00
2023-04-15T07:43:18.337Z,87294.00
2023-04-15T07:44:18.412Z,87290.00
2023-04-15T07:45:18.453Z,87288.00
2023-04-15T07:46:18.498Z,87290.00
2023-04-15T07:47:18.630Z,87288.00
2023-04-15T07:48:18.579Z,87288.00
2023-04-15T07:49:18.603Z,87286.00
2023-04-15T07:50:18.793Z,87288.00
2023-04-15T07:51:18.681Z,87288.00
2023-04-15T07:52:18.769Z,87288.00
2023-04-15T07:53:18.770Z,87288.00
2023-04-15T07:54:18.810Z,87286.00
2023-04-15T07:55:18.854Z,87288.00
2023-04-15T07:56:18.904Z,87286.00
2023-04-15T07:57:18.937Z,87286.00
2023-04-15T07:58:18.957Z,87286.00
2023-04-15T07:59:19.024Z,87290.00
2023-04-15T08:00:19.032Z,87288.00
2023-04-15T08:01:19.131Z,87284.00
2023-04-15T08:02:19.221Z,87284.00
2023-04-15T08:03:19.255Z,87286.00
2023-04-15T08:04:19.318Z,87288.00
2023-04-15T08:05:19.302Z,87286.00
2023-04-15T08:06:19.245Z,87286.00
2023-04-15T08:07:19.232Z,87288.00
2023-04-15T08:08:19.252Z,87286.00
2023-04-15T08:09:19.284Z,87286.00
2023-04-15T08:10:19.347Z,87286.00
2023-04-15T08:11:19.351Z,87282.00
2023-04-15T08:12:19.464Z,87284.00
2023-04-15T08:13:19.444Z,87284.00
2023-04-15T08:14:19.473Z,87280.00
2023-04-15T08:15:19.510Z,87286.00
2023-04-15T08:16:19.624Z,87282.00
2023-04-15T08:17:19.605Z,87280.00
2023-04-15T08:18:19.629Z,87276.00
2023-04-15T08:19:19.653Z,87280.00
2023-04-15T08:20:19.714Z,87280.00
2023-04-15T08:21:19.719Z,87280.00
2023-04-15T08:22:21.248Z,87278.00
2023-04-15T08:23:19.945Z,87282.00
2023-04-15T08:24:19.908Z,87280.00
2023-04-15T08:25:20.038Z,87278.00
2023-04-15T08:26:19.924Z,87276.00
2023-04-15T08:27:20.020Z,87280.00
2023-04-15T08:28:20.032Z,87282.00
2023-04-15T08:29:19.992Z,87278.00
2023-04-15T08:30:19.997Z,87280.00
2023-04-15T08:31:20.151Z,87280.00
2023-04-15T08:32:20.027Z,87282.00
2023-04-15T08:33:20.086Z,87280.00
2023-04-15T08:34:20.147Z,87282.00
2023-04-15T08:35:20.071Z,87280.00
2023-04-15T08:36:20.049Z,87282.00
2023-04-15T08:37:20.049Z,87280.00
2023-04-15T08:38:20.065Z,87282.00
2023-04-15T08:39:20.134Z,87282.00
2023-04-15T08:40:20.209Z,87284.00
2023-04-15T08:41:20.101Z,87284.00
2023-04-15T08:42:20.104Z,87282.00
2023-04-15T08:43:20.095Z,87284.00
2023-04-15T08:44:20.082Z,87282.00
2023-04-15T08:45:20.096Z,87282.00
2023-04-15T08:46:20.099Z,87282.00
2023-04-15T08:47:20.077Z,87282.00
2023-04-15T08:48:20.119Z,87284.00
2023-04-15T08:49:20.032Z,87282.00
2023-04-15T08:50:20.071Z,87282.00
2023-04-15T08:51:20.033Z,87278.00
2023-04-15T08:52:19.999Z,87280.00
2023-04-15T08:53:20.004Z,87278.00
2023-04-15T08:54:19.979Z,87274.00
2023-04-15T08:55:20.114Z,87276.00
2023-04-15T08:56:19.973Z,87276.00
2023-04-15T08:57:19.963Z,87278.00
2023-04-15T08:58:19.929Z,87276.00
2023-04-15T08:59:19.920Z,87276.00
2023-04-15T09:00:19.940Z,87274.00
2023-04-15T09:01:19.978Z,87276.00
2023-04-15T09:02:19.974Z,87276.00
2023-04-15T09:03:20.211Z,87274.00
2023-04-15T09:04:20.053Z,87270.00
2023-04-15T09:05:19.784Z,87274.00
2023-04-15T09:06:19.754Z,87274.00
2023-04-15T09:07:19.731Z,87272.00
2023-04-15T09:08:19.819Z,87274.00
2023-04-15T09:09:19.767Z,87270.00
2023-04-15T09:10:19.651Z,87270.00
2023-04-15T09:11:20.236Z,87272.00
2023-04-15T09:12:19.644Z,87272.00
2023-04-15T09:13:19.700Z,87274.00
2023-04-15T09:14:19.605Z,87276.00
2023-04-15T09:15:19.536Z,87270.00
2023-04-15T09:16:19.578Z,87270.00
2023-04-15T09:17:19.578Z,87272.00
2023-04-15T09:18:19.502Z,87270.00
2023-04-15T09:19:19.467Z,87266.00
2023-04-15T09:20:19.536Z,87268.00
2023-04-15T09:21:19.501Z,87266.00
2023-04-15T09:22:19.409Z,87266.00
2023-04-15T09:23:19.535Z,87263.00
2023-04-15T09:24:19.376Z,87266.00
2023-04-15T09:25:19.381Z,87266.00
2023-04-15T09:26:19.447Z,87265.00
2023-04-15T09:27:19.342Z,87265.00
2023-04-15T09:28:19.411Z,87265.00
2023-04-15T09:29:19.454Z,87265.00
2023-04-15T09:30:19.314Z,87266.00
2023-04-15T09:31:19.358Z,87266.00
2023-04-15T09:32:19.316Z,87268.00
2023-04-15T09:33:19.465Z,87268.00
2023-04-15T09:34:19.379Z,87265.00
2023-04-15T09:35:19.347Z,87265.00
2023-04-15T09:36:19.299Z,87265.00
2023-04-15T09:37:31.688Z,87257.00
2023-04-15T09:38:20.283Z,87257.00
2023-04-15T09:39:19.229Z,87257.00
2023-04-15T09:40:19.186Z,87261.00
2023-04-15T09:41:19.167Z,87259.00
2023-04-15T09:42:19.129Z,87263.00
2023-04-15T09:43:19.073Z,87257.00
2023-04-15T09:44:19.107Z,87257.00
2023-04-15T09:45:18.994Z,87259.00
2023-04-15T09:46:19.102Z,87261.00
2023-04-15T09:47:19.047Z,87261.00
2023-04-15T09:48:19.056Z,87261.00
2023-04-15T09:49:19.107Z,87259.00
2023-04-15T09:50:19.075Z,87257.00
2023-04-15T09:51:19.110Z,87257.00
2023-04-15T09:52:19.158Z,87259.00
2023-04-15T09:53:19.257Z,87259.00
2023-04-15T09:54:19.305Z,87257.00
2023-04-15T09:55:19.215Z,87257.00
2023-04-15T09:56:19.253Z,87259.00
2023-04-15T09:57:19.154Z,87259.00
2023-04-15T09:58:19.110Z,87253.00
2023-04-15T09:59:20.112Z,87257.00
2023-04-15T10:00:19.021Z,87261.00
2023-04-15T10:01:19.052Z,87259.00
2023-04-15T10:02:19.177Z,87257.00
2023-04-15T10:03:19.137Z,87257.00
2023-04-15T10:04:18.985Z,87255.00
2023-04-15T10:05:18.943Z,87255.00
2023-04-15T10:06:18.983Z,87257.00
2023-04-15T10:07:18.986Z,87259.00
2023-04-15T10:08:19.018Z,87257.00
2023-04-15T10:09:19.041Z,87257.00
2023-04-15T10:10:19.061Z,87257.00
2023-04-15T10:11:19.079Z,87251.00
2023-04-15T10:12:19.105Z,87251.00
2023-04-15T10:13:19.132Z,87257.00
2023-04-15T10:14:19.203Z,87257.00
2023-04-15T10:15:19.207Z,87255.00
2023-04-15T10:16:19.267Z,87257.00
2023-04-15T10:17:19.239Z,87255.00
2023-04-15T10:18:19.272Z,87259.00
2023-04-15T10:19:19.310Z,87261.00
2023-04-15T10:20:19.339Z,87257.00
2023-04-15T10:21:19.380Z,87257.00
2023-04-15T10:22:19.400Z,87261.00
2023-04-15T10:23:19.430Z,87259.00
2023-04-15T10:24:19.466Z,87263.00
2023-04-15T10:25:19.528Z,87261.00
2023-04-15T10:26:19.522Z,87261.00
2023-04-15T10:27:19.552Z,87257.00
2023-04-15T10:28:19.598Z,87257.00
2023-04-15T10:29:19.664Z,87261.00
2023-04-15T10:30:19.681Z,87257.00
2023-04-15T10:31:19.706Z,87257.00
2023-04-15T10:32:19.812Z,87259.00
2023-04-15T10:33:19.714Z,87257.00
2023-04-15T10:34:19.721Z,87261.00
2023-04-15T10:35:19.730Z,87259.00
2023-04-15T10:36:19.747Z,87263.00
2023-04-15T10:37:19.758Z,87265.00
2023-04-15T10:38:19.816Z,87265.00
2023-04-15T10:39:19.826Z,87263.00
2023-04-15T10:40:19.858Z,87265.00
2023-04-15T10:41:20.709Z,87265.00
2023-04-15T10:42:19.885Z,87265.00
2023-04-15T10:43:19.895Z,87265.00
2023-04-15T10:44:19.930Z,87265.00
2023-04-15T10:45:19.933Z,87266.00
2023-04-15T10:46:20.005Z,87266.00
2023-04-15T10:47:19.993Z,87266.00
2023-04-15T10:48:20.011Z,87268.00
2023-04-15T10:49:20.047Z,87272.00
2023-04-15T10:50:20.043Z,87270.00
2023-04-15T10:51:20.062Z,87276.00
2023-04-15T10:52:20.081Z,87272.00
2023-04-15T10:53:21.791Z,87276.00
2023-04-15T10:54:20.141Z,87276.00
2023-04-15T10:55:20.622Z,87278.00
2023-04-15T10:56:20.193Z,87278.00
2023-04-15T10:57:20.156Z,87278.00
2023-04-15T10:58:20.201Z,87274.00
2023-04-15T10:59:21.411Z,87276.00
2023-04-15T11:00:20.216Z,87272.00
2023-04-15T11:01:20.273Z,87272.00
2023-04-15T11:02:20.343Z,87270.00
2023-04-15T11:03:20.353Z,87270.00
2023-04-15T11:04:20.411Z,87268.00
2023-04-15T11:05:20.191Z,87270.00
2023-04-15T11:06:20.175Z,87272.00
2023-04-15T11:07:20.105Z,87276.00
2023-04-15T11:08:20.071Z,87270.00
2023-04-15T11:09:20.001Z,87272.00
2023-04-15T11:10:19.956Z,87274.00
2023-04-15T11:11:19.937Z,87270.00
2023-04-15T11:12:19.872Z,87272.00
2023-04-15T11:13:19.838Z,87270.00
2023-04-15T11:14:19.863Z,87272.00
2023-04-15T11:15:19.842Z,87272.00
2023-04-15T11:16:19.934Z,87274.00
2023-04-15T11:17:19.869Z,87268.00
2023-04-15T11:18:19.876Z,87270.00
2023-04-15T11:19:19.901Z,87268.00
2023-04-15T11:20:19.903Z,87266.00
2023-04-15T11:21:19.957Z,87272.00
2023-04-15T11:22:19.911Z,87274.00
2023-04-15T11:23:19.970Z,87274.00
2023-04-15T11:24:19.952Z,87276.00
2023-04-15T11:25:19.949Z,87274.00
2023-04-15T11:26:19.923Z,87270.00
2023-04-15T11:27:19.898Z,87266.00
2023-04-15T11:28:19.824Z,87270.00
2023-04-15T11:29:19.789Z,87270.00
2023-04-15T11:30:19.799Z,87270.00
2023-04-15T11:31:19.735Z,87268.00
2023-04-15T11:32:19.809Z,87266.00
2023-04-15T11:33:19.624Z,87268.00
2023-04-15T11:34:19.614Z,87268.00
2023-04-15T11:35:19.646Z,87268.00
2023-04-15T11:36:19.671Z,87270.00
2023-04-15T11:37:19.671Z,87272.00
2023-04-15T11:38:19.755Z,87268.00
2023-04-15T11:39:19.698Z,87270.00
2023-04-15T11:40:19.710Z,87274.00
2023-04-15T11:41:19.698Z,87274.00
2023-04-15T11:42:19.673Z,87274.00
2023-04-15T11:43:19.673Z,87274.00
2023-04-15T11:44:19.668Z,87274.00